Time;durP1;ratioP1;P1;durP2;ratioP2;P2;SDS_P1;SDS_P2;PMS_P1;PMS_P2;Temp;Humidity;BMP_temperature;BMP_pressure;BME280_temperature;BME280_humidity;BME280_pressure;Samples;Min_cycle;Max_cycle;Signal;HPM_P1;HPM_P2
2021/05/18 00:01:43;;;;;;;1.93;1.60;;;10.80;92.50;;;;;;4985749;28;20200;-75
2021/05/18 00:04:09;;;;;;;6.33;3.67;;;10.60;92.70;;;;;;4985545;28;20246;-75
2021/05/18 00:06:34;;;;;;;1.90;1.70;;;10.60;92.90;;;;;;4980041;28;20499;-75
2021/05/18 00:11:47;;;;;;;2.40;2.00;;;10.50;92.90;;;;;;5033079;23;20256;-75
2021/05/18 00:14:15;;;;;;;2.87;2.20;;;10.50;92.90;;;;;;5052360;23;20807;-75
2021/05/18 00:16:41;;;;;;;4.20;2.70;;;10.50;93.10;;;;;;5049104;28;20656;-74
2021/05/18 00:19:07;;;;;;;2.00;1.80;;;10.60;93.10;;;;;;5041800;28;20187;-75
2021/05/18 00:21:34;;;;;;;2.30;1.20;;;10.60;93.10;;;;;;5043133;28;20195;-75
2021/05/18 00:23:59;;;;;;;1.70;1.60;;;10.70;93.00;;;;;;5043071;28;20275;-75
2021/05/18 00:26:25;;;;;;;5.20;1.60;;;10.70;92.80;;;;;;5027789;28;20273;-75
2021/05/18 00:28:51;;;;;;;2.47;1.60;;;10.90;92.50;;;;;;5029452;28;20266;-75
2021/05/18 00:31:16;;;;;;;2.03;1.67;;;10.80;92.20;;;;;;4999708;23;20310;-74
2021/05/18 00:33:43;;;;;;;6.13;3.43;;;10.80;92.10;;;;;;5024108;23;20245;-75
2021/05/18 00:36:09;;;;;;;1.93;1.77;;;10.80;92.10;;;;;;5041807;28;20252;-75
2021/05/18 00:38:35;;;;;;;2.20;1.57;;;10.80;92.10;;;;;;5031458;28;20187;-74
2021/05/18 00:41:02;;;;;;;2.53;1.90;;;10.80;92.50;;;;;;5024161;28;20591;-74
2021/05/18 00:43:27;;;;;;;3.27;2.00;;;10.80;92.60;;;;;;5036472;28;20371;-74
2021/05/18 00:45:54;;;;;;;1.90;1.70;;;10.80;92.00;;;;;;5029104;23;20230;-74
2021/05/18 00:48:22;;;;;;;2.57;2.13;;;10.80;92.10;;;;;;5026378;28;20562;-75
2021/05/18 00:50:51;;;;;;;3.57;1.77;;;10.90;91.80;;;;;;5026751;28;20195;-74
2021/05/18 00:53:18;;;;;;;3.13;2.17;;;10.90;92.20;;;;;;5019658;28;20235;-75
2021/05/18 00:55:50;;;;;;;6.93;3.40;;;10.90;92.00;;;;;;5048698;23;20269;-75
2021/05/18 00:58:33;;;;;;;4.47;1.90;;;11.00;92.10;;;;;;5045968;28;20189;-75
2021/05/18 01:01:18;;;;;;;2.83;1.67;;;10.90;92.00;;;;;;5028430;28;20247;-74
2021/05/18 01:03:49;;;;;;;3.83;3.17;;;10.90;91.70;;;;;;5032480;23;20295;-74
2021/05/18 01:06:34;;;;;;;2.47;1.77;;;10.90;91.60;;;;;;5016820;23;20329;-74
2021/05/18 01:09:10;;;;;;;1.50;1.40;;;11.10;92.00;;;;;;5002354;28;20599;-74
2021/05/18 01:11:38;;;;;;;4.40;3.00;;;10.90;91.90;;;;;;5027074;22;20233;-74
2021/05/18 01:14:08;;;;;;;2.20;2.00;;;10.90;92.30;;;;;;5028141;28;20197;-74
2021/05/18 01:19:00;;;;;;;3.83;2.60;;;10.90;91.90;;;;;;5053361;22;20245;-74
2021/05/18 01:21:26;;;;;;;3.17;1.30;;;10.90;92.00;;;;;;5030095;23;20238;-74
2021/05/18 01:23:54;;;;;;;2.17;1.43;;;10.90;92.30;;;;;;5029468;28;20198;-74
2021/05/18 01:26:20;;;;;;;1.37;1.27;;;10.90;92.40;;;;;;5028083;28;20188;-74
2021/05/18 01:28:46;;;;;;;2.97;1.60;;;10.80;92.10;;;;;;5026618;28;20192;-74
2021/05/18 01:31:17;;;;;;;1.60;1.50;;;10.80;92.30;;;;;;5054367;22;20234;-74
2021/05/18 01:33:43;;;;;;;2.37;1.20;;;10.70;93.20;;;;;;5051115;28;20272;-74
2021/05/18 01:36:10;;;;;;;1.80;1.60;;;10.70;93.20;;;;;;5046539;28;20290;-74
2021/05/18 01:38:45;;;;;;;2.87;1.80;;;10.80;93.10;;;;;;5049139;28;20183;-74
2021/05/18 01:43:57;;;;;;;2.30;1.70;;;10.70;93.20;;;;;;5052420;28;20206;-75
2021/05/18 01:46:25;;;;;;;1.67;1.57;;;10.70;93.00;;;;;;5041358;23;20235;-75
2021/05/18 01:49:02;;;;;;;3.60;1.67;;;10.80;93.60;;;;;;5033099;28;20179;-74
2021/05/18 01:51:29;;;;;;;2.20;1.63;;;10.70;93.60;;;;;;5046216;23;20229;-75
2021/05/18 01:53:57;;;;;;;4.73;3.37;;;10.80;93.90;;;;;;5044090;28;20191;-75
2021/05/18 01:59:18;;;;;;;3.20;1.70;;;10.80;93.30;;;;;;5052299;28;20232;-75
2021/05/18 02:01:46;;;;;;;1.87;1.67;;;10.80;93.40;;;;;;5031795;23;20527;-75
2021/05/18 02:04:38;;;;;;;2.47;1.83;;;10.70;93.90;;;;;;5023183;28;20220;-75
2021/05/18 02:07:11;;;;;;;5.83;1.63;;;10.70;93.60;;;;;;5049764;23;20223;-75
2021/05/18 02:09:38;;;;;;;2.00;1.80;;;10.70;93.80;;;;;;5000593;28;20250;-75
2021/05/18 02:12:05;;;;;;;2.27;1.60;;;10.60;94.60;;;;;;5007162;23;20232;-75
2021/05/18 02:14:33;;;;;;;3.97;1.90;;;10.60;94.80;;;;;;5021788;22;21720;-75
2021/05/18 02:25:22;;;;;;;2.33;1.60;;;10.50;95.30;;;;;;5056314;22;20622;-76
2021/05/18 02:27:49;;;;;;;2.07;1.83;;;10.40;95.90;;;;;;5031536;28;20186;-75
2021/05/18 02:30:16;;;;;;;1.90;1.70;;;10.40;96.60;;;;;;5028798;28;20187;-74
2021/05/18 02:32:42;;;;;;;2.83;1.87;;;10.30;96.40;;;;;;5033452;23;20314;-74
2021/05/18 02:35:11;;;;;;;3.70;3.03;;;10.30;96.80;;;;;;5027823;28;20500;-74
2021/05/18 02:37:38;;;;;;;3.70;1.63;;;10.30;97.20;;;;;;5020970;28;20255;-74
2021/05/18 02:40:06;;;;;;;2.70;1.90;;;10.30;97.20;;;;;;4998081;23;638328;-74
2021/05/18 02:42:32;;;;;;;1.93;1.60;;;10.30;97.20;;;;;;5033737;22;20230;-74
2021/05/18 02:50:13;;;;;;;2.53;1.70;;;10.10;97.30;;;;;;5048667;23;20237;-74
2021/05/18 02:52:41;;;;;;;1.63;1.53;;;10.10;97.30;;;;;;5032704;28;20576;-75
2021/05/18 02:55:09;;;;;;;5.93;4.07;;;9.90;97.50;;;;;;5042746;28;20189;-74
2021/05/18 02:57:37;;;;;;;3.83;2.20;;;9.90;98.30;;;;;;5048332;28;20204;-75
2021/05/18 03:00:12;;;;;;;1.57;1.40;;;9.90;98.20;;;;;;5052335;22;20282;-75
2021/05/18 03:02:39;;;;;;;2.00;1.80;;;9.80;98.60;;;;;;5032074;23;20227;-75
2021/05/18 03:05:07;;;;;;;3.67;1.70;;;9.70;98.80;;;;;;5034219;23;20640;-75
2021/05/18 03:07:32;;;;;;;2.90;1.87;;;9.60;99.20;;;;;;4989559;28;20281;-74
2021/05/18 03:09:58;;;;;;;2.27;2.07;;;9.50;99.50;;;;;;5006142;28;20641;-74
2021/05/18 03:12:23;;;;;;;3.67;2.57;;;9.50;99.90;;;;;;5025098;28;20299;-75
2021/05/18 03:14:49;;;;;;;3.27;2.20;;;9.40;99.90;;;;;;5023047;28;20557;-75
2021/05/18 03:17:15;;;;;;;2.53;1.93;;;9.40;99.90;;;;;;5019654;28;20271;-74
2021/05/18 03:19:41;;;;;;;2.13;1.80;;;9.30;99.90;;;;;;5026227;23;20239;-74
2021/05/18 03:22:07;;;;;;;2.57;2.00;;;9.30;99.90;;;;;;5019356;23;20228;-75
2021/05/18 03:24:33;;;;;;;3.90;2.63;;;9.30;99.90;;;;;;5051561;22;20245;-74
2021/05/18 03:26:59;;;;;;;2.30;2.10;;;9.20;99.90;;;;;;5037457;28;20571;-74
2021/05/18 03:29:34;;;;;;;4.10;2.10;;;9.20;99.90;;;;;;5046585;28;20190;-74
2021/05/18 03:34:44;;;;;;;3.13;1.90;;;9.20;99.90;;;;;;5040196;23;20229;-74
2021/05/18 03:39:43;;;;;;;2.50;1.90;;;9.30;99.90;;;;;;5002128;28;20266;-75
2021/05/18 03:42:25;;;;;;;1.80;1.70;;;9.30;99.90;;;;;;4989941;28;20300;-74
2021/05/18 03:44:58;;;;;;;2.20;2.00;;;9.30;99.90;;;;;;5027012;23;20231;-74
2021/05/18 04:11:48;;;;;;;3.60;3.00;;;10.00;99.50;;;;;;5051058;23;20304;-74
2021/05/18 04:16:59;;;;;;;3.60;2.83;;;10.10;97.30;;;;;;5047463;23;20234;-75
2021/05/18 04:59:42;;;;;;;1.80;1.60;;;10.70;95.70;;;;;;5025160;28;20233;-69
2021/05/18 05:07:05;;;;;;;1.63;1.43;;;10.80;94.70;;;;;;5008348;28;20196;-68
2021/05/18 05:09:33;;;;;;;1.40;1.30;;;10.90;93.80;;;;;;5006115;28;20184;-68
2021/05/18 05:14:43;;;;;;;3.07;1.47;;;10.90;93.00;;;;;;5007892;28;20189;-68
2021/05/18 05:17:09;;;;;;;2.37;1.73;;;11.00;92.70;;;;;;5001623;28;20196;-68
2021/05/18 05:19:35;;;;;;;1.50;1.40;;;11.10;92.10;;;;;;5001477;28;20188;-68
2021/05/18 05:22:02;;;;;;;2.33;1.67;;;11.20;92.10;;;;;;4988403;28;20258;-68
2021/05/18 05:24:28;;;;;;;3.17;1.40;;;11.40;90.80;;;;;;5000644;28;20188;-68
2021/05/18 05:26:54;;;;;;;2.97;1.60;;;11.50;90.50;;;;;;4999659;28;20184;-69
2021/05/18 05:29:20;;;;;;;1.77;1.60;;;11.70;90.30;;;;;;5006334;28;20211;-68
2021/05/18 05:31:48;;;;;;;1.37;1.27;;;11.80;90.10;;;;;;5002164;28;20582;-68
2021/05/18 05:34:15;;;;;;;2.73;2.40;;;11.90;88.20;;;;;;5005145;28;20199;-68
2021/05/18 05:36:40;;;;;;;1.23;1.13;;;12.00;87.20;;;;;;5004195;28;20314;-67
2021/05/18 05:39:11;;;;;;;1.93;1.73;;;11.80;87.00;;;;;;5003782;28;20286;-68
2021/05/18 05:41:36;;;;;;;2.40;1.73;;;11.80;87.40;;;;;;5004045;28;20219;-68
2021/05/18 05:44:04;;;;;;;2.00;1.57;;;11.70;88.10;;;;;;5007846;28;20636;-68
2021/05/18 05:46:29;;;;;;;3.40;2.10;;;11.70;89.70;;;;;;5008993;28;20592;-68
2021/05/18 05:48:55;;;;;;;2.17;1.83;;;11.70;87.70;;;;;;5006426;28;20207;-68
2021/05/18 05:51:23;;;;;;;6.03;2.10;;;11.80;88.30;;;;;;5007565;28;20275;-68
2021/05/18 05:53:49;;;;;;;5.17;2.03;;;11.80;87.00;;;;;;4992360;28;20203;-68
2021/05/18 05:56:15;;;;;;;2.77;2.03;;;11.80;88.30;;;;;;5009498;28;20537;-68
2021/05/18 05:58:41;;;;;;;4.83;1.87;;;11.80;88.30;;;;;;5008278;28;20691;-68
2021/05/18 06:01:06;;;;;;;2.80;2.07;;;11.90;87.80;;;;;;4998969;28;20220;-68
2021/05/18 06:03:33;;;;;;;5.47;2.57;;;11.90;86.30;;;;;;5003009;28;20208;-68
2021/05/18 06:05:58;;;;;;;3.80;2.60;;;11.80;85.70;;;;;;5004875;28;20338;-69
2021/05/18 06:08:24;;;;;;;3.23;2.47;;;11.80;86.30;;;;;;5010869;28;20275;-69
2021/05/18 06:10:54;;;;;;;2.87;2.43;;;12.00;86.90;;;;;;5008286;28;20362;-69
2021/05/18 06:16:26;;;;;;;2.67;2.03;;;12.30;84.30;;;;;;5007618;28;20202;-70
2021/05/18 06:36:54;;;;;;;1.63;1.53;;;13.20;76.90;;;;;;5002141;28;20209;-68
2021/05/18 06:43:47;;;;;;;2.83;1.93;;;13.30;75.80;;;;;;5009462;28;20192;-68
2021/05/18 06:49:08;;;;;;;2.53;1.70;;;13.50;75.40;;;;;;4993566;28;20204;-68
2021/05/18 06:51:33;;;;;;;3.23;1.67;;;14.00;72.40;;;;;;5011811;28;20703;-71
2021/05/18 06:53:59;;;;;;;3.37;2.27;;;14.00;72.30;;;;;;5004684;28;20218;-68
2021/05/18 06:56:32;;;;;;;2.67;1.60;;;14.10;71.80;;;;;;5005445;28;20204;-69
2021/05/18 07:01:26;;;;;;;1.70;1.47;;;13.90;71.10;;;;;;5013806;28;20200;-68
2021/05/18 07:03:54;;;;;;;1.90;1.80;;;14.20;71.10;;;;;;4984671;28;20196;-69
2021/05/18 07:09:04;;;;;;;3.70;1.83;;;;;;;;;;5097322;22;20225;-82
2021/05/18 07:11:30;;;;;;;2.33;1.43;;;;;;;;;;5021180;28;20242;-81
2021/05/18 07:14:00;;;;;;;5.03;1.83;;;14.10;68.90;;;;;;5020757;28;20196;-83
2021/05/18 07:16:26;;;;;;;1.53;1.40;;;;;;;;;;5017764;28;20198;-79
2021/05/18 07:18:52;;;;;;;5.17;1.50;;;;;;;;;;5007267;28;20190;-82
2021/05/18 07:21:20;;;;;;;3.97;1.80;;;;;;;;;;5018189;28;20204;-81
2021/05/18 07:23:46;;;;;;;2.07;1.20;;;;;;;;;;5017582;28;20215;-83
2021/05/18 07:26:12;;;;;;;8.37;1.60;;;;;;;;;;5025040;28;20191;-83
2021/05/18 07:28:38;;;;;;;3.40;1.70;;;;;;;;;;5027081;28;20277;-83
2021/05/18 07:31:06;;;;;;;1.47;1.30;;;14.50;62.80;;;;;;5025742;28;20278;-80
2021/05/18 07:33:33;;;;;;;2.73;1.00;;;14.50;63.40;;;;;;5018124;28;20196;-83
2021/05/18 07:36:07;;;;;;;2.50;1.17;;;14.80;61.80;;;;;;5013421;28;20464;-83
2021/05/18 07:38:33;;;;;;;2.27;1.17;;;14.50;62.00;;;;;;5018156;28;20179;-83
2021/05/18 07:41:00;;;;;;;2.10;1.00;;;;;;;;;;5033736;28;20187;-87
2021/05/18 07:43:26;;;;;;;3.93;1.30;;;;;;;;;;5023668;28;20191;-85
2021/05/18 07:45:56;;;;;;;2.63;1.07;;;;;;;;;;5020994;28;20254;-84
2021/05/18 07:49:12;;;;;;;2.20;1.70;;;15.00;60.10;;;;;;5021963;28;20202;-84
2021/05/18 07:59:19;;;;;;;4.33;1.40;;;14.70;63.00;;;;;;5038167;28;20241;-82
2021/05/18 08:07:02;;;;;;;2.17;1.23;;;14.80;62.20;;;;;;5024628;28;20234;-84
2021/05/18 08:09:28;;;;;;;1.63;1.23;;;15.00;63.00;;;;;;5021306;28;20207;-84
2021/05/18 08:11:54;;;;;;;3.17;1.70;;;14.80;62.00;;;;;;5017829;28;20231;-84
2021/05/18 08:14:21;;;;;;;2.17;1.70;;;14.80;62.80;;;;;;5018230;28;20570;-85
2021/05/18 08:16:59;;;;;;;3.30;1.63;;;14.80;60.80;;;;;;5020167;28;20196;-84
2021/05/18 09:30:37;;;;;;;3.77;1.63;;;15.10;59.00;;;;;;5026630;28;20268;-84
2021/05/18 10:22:27;;;;;;;1.13;1.00;;;13.30;58.30;;;;;;5030241;28;20200;-84
2021/05/18 10:35:54;;;;;;;0.90;0.87;;;14.10;61.30;;;;;;5029490;28;20199;-82
2021/05/18 10:38:23;;;;;;;1.00;0.90;;;14.20;60.30;;;;;;5008548;28;20229;-83
2021/05/18 10:41:17;;;;;;;1.80;0.97;;;14.40;60.90;;;;;;5009906;28;20208;-83
2021/05/18 10:43:44;;;;;;;1.57;1.17;;;14.40;61.60;;;;;;5006621;28;20208;-82
2021/05/18 10:46:28;;;;;;;1.40;1.30;;;14.30;60.00;;;;;;5022712;28;20259;-83
2021/05/18 10:49:03;;;;;;;3.37;1.27;;;15.00;58.90;;;;;;5014136;28;20191;-85
2021/05/18 10:52:02;;;;;;;0.70;0.70;;;15.10;61.50;;;;;;5002918;28;20226;-84
2021/05/18 10:54:34;;;;;;;2.07;1.00;;;15.60;59.40;;;;;;4989331;28;20202;-85
2021/05/18 10:57:01;;;;;;;1.57;0.90;;;15.80;55.60;;;;;;5008932;28;20216;-85
2021/05/18 10:59:37;;;;;;;0.83;0.83;;;15.70;54.00;;;;;;5015475;28;20193;-85
2021/05/18 11:02:18;;;;;;;0.57;0.57;;;15.60;54.40;;;;;;5015154;28;20279;-85
2021/05/18 11:04:46;;;;;;;0.70;0.63;;;15.50;53.40;;;;;;5034157;28;20201;-86
2021/05/18 11:07:16;;;;;;;0.70;0.70;;;16.10;52.40;;;;;;5013921;28;20339;-86
2021/05/18 11:09:42;;;;;;;2.07;1.00;;;;;;;;;;5019183;28;20262;-85
2021/05/18 11:12:10;;;;;;;3.27;1.43;;;16.10;52.70;;;;;;5028735;28;20217;-83
2021/05/18 11:14:43;;;;;;;4.10;1.20;;;16.30;52.50;;;;;;5015094;28;20200;-85
2021/05/18 11:17:24;;;;;;;1.73;0.80;;;16.90;51.90;;;;;;5017064;28;20194;-84
2021/05/18 11:20:12;;;;;;;1.90;1.00;;;17.10;51.70;;;;;;5015881;28;20204;-85
2021/05/18 11:25:32;;;;;;;0.90;0.90;;;16.80;51.80;;;;;;5031426;28;20192;-85
2021/05/18 11:28:08;;;;;;;1.17;0.70;;;16.90;49.60;;;;;;5019052;28;20191;-84
2021/05/18 11:30:35;;;;;;;0.53;0.53;;;16.80;49.40;;;;;;5005853;28;20220;-83
2021/05/18 11:33:01;;;;;;;1.30;0.47;;;;;;;;;;5014475;28;20214;-85
2021/05/18 11:35:27;;;;;;;2.77;1.07;;;;;;;;;;5027144;28;20275;-85
2021/05/18 11:38:10;;;;;;;1.00;0.93;;;16.10;49.70;;;;;;5018203;28;20227;-85
2021/05/18 11:40:47;;;;;;;1.07;0.53;;;16.20;48.60;;;;;;5018698;28;20194;-86
2021/05/18 11:43:24;;;;;;;3.10;1.13;;;16.20;48.60;;;;;;5014630;28;20200;-86
2021/05/18 11:46:22;;;;;;;0.83;0.80;;;16.50;48.20;;;;;;5009780;28;20204;-86
2021/05/18 11:49:00;;;;;;;0.53;0.50;;;16.50;46.90;;;;;;5006229;28;20209;-85
2021/05/18 11:51:26;;;;;;;0.87;0.50;;;;;;;;;;5018870;28;20225;-86
2021/05/18 11:53:53;;;;;;;0.30;0.30;;;17.10;47.00;;;;;;5019142;28;20756;-85
2021/05/18 11:56:26;;;;;;;0.57;0.57;;;17.60;46.60;;;;;;5021925;28;20208;-86
2021/05/18 11:59:00;;;;;;;0.90;0.60;;;17.90;45.40;;;;;;5019929;28;20194;-84
2021/05/18 12:01:26;;;;;;;0.50;0.50;;;;;;;;;;5017787;28;20205;-85
2021/05/18 12:04:03;;;;;;;0.70;0.60;;;19.60;42.00;;;;;;5007526;28;20548;-85
2021/05/18 12:06:34;;;;;;;1.13;0.50;;;;;;;;;;5016866;28;20316;-87
2021/05/18 12:08:59;;;;;;;1.80;0.83;;;19.50;40.10;;;;;;5029562;28;20230;-85
2021/05/18 12:11:26;;;;;;;0.70;0.70;;;;;;;;;;5016146;28;20222;-85
2021/05/18 12:13:52;;;;;;;0.90;0.80;;;20.00;38.10;;;;;;5018163;28;20202;-85
2021/05/18 12:16:24;;;;;;;1.37;0.97;;;20.00;38.80;;;;;;5013899;28;20333;-86
2021/05/18 12:18:54;;;;;;;1.27;0.70;;;19.80;39.50;;;;;;5019720;28;20690;-84
2021/05/18 12:21:22;;;;;;;0.53;0.50;;;19.60;36.70;;;;;;5021209;28;20570;-85
2021/05/18 12:24:11;;;;;;;0.50;0.50;;;19.70;38.90;;;;;;5022079;28;20221;-85
2021/05/18 12:26:49;;;;;;;0.60;0.60;;;19.90;37.00;;;;;;5018257;28;20574;-85
2021/05/18 12:29:25;;;;;;;0.40;0.40;;;19.50;38.60;;;;;;5024502;28;20200;-85
2021/05/18 12:31:51;;;;;;;0.90;0.83;;;18.70;40.10;;;;;;5018465;28;20222;-86
2021/05/18 12:34:30;;;;;;;0.63;0.63;;;17.80;40.80;;;;;;5021104;28;20198;-84
2021/05/18 12:36:56;;;;;;;1.10;0.80;;;16.90;43.50;;;;;;5015527;28;20202;-84
2021/05/18 12:39:22;;;;;;;1.30;0.70;;;16.80;44.90;;;;;;5014382;28;20254;-85
2021/05/18 12:41:58;;;;;;;0.83;0.83;;;16.80;45.50;;;;;;5021027;28;20927;-85
2021/05/18 12:44:30;;;;;;;0.60;0.50;;;17.40;44.90;;;;;;5004516;28;20630;-85
2021/05/18 12:47:05;;;;;;;1.10;1.00;;;17.60;44.20;;;;;;4999595;28;20197;-86
2021/05/18 12:49:33;;;;;;;0.53;0.50;;;17.20;44.20;;;;;;5010288;28;20215;-85
2021/05/18 12:52:12;;;;;;;0.53;0.40;;;17.10;45.10;;;;;;5025068;28;20245;-85
2021/05/18 12:54:59;;;;;;;0.50;0.50;;;16.90;45.10;;;;;;5012398;28;20669;-86
2021/05/18 12:57:28;;;;;;;0.30;0.30;;;17.30;45.40;;;;;;5018439;28;20217;-86
2021/05/18 13:00:14;;;;;;;0.47;0.30;;;17.20;44.30;;;;;;5019822;28;20290;-83
2021/05/18 13:02:45;;;;;;;0.70;0.70;;;17.10;44.90;;;;;;5016898;28;20235;-85
2021/05/18 13:05:27;;;;;;;0.70;0.70;;;17.30;43.90;;;;;;5029294;28;20639;-85
2021/05/18 13:08:05;;;;;;;0.60;0.60;;;17.50;44.60;;;;;;5018903;28;20189;-85
2021/05/18 13:10:40;;;;;;;0.70;0.70;;;;;;;;;;5014009;28;20190;-86
2021/05/18 13:13:07;;;;;;;0.47;0.47;;;20.00;38.00;;;;;;5018114;28;20296;-85
2021/05/18 13:15:33;;;;;;;0.60;0.60;;;20.70;37.70;;;;;;5017697;28;20694;-84
2021/05/18 13:18:02;;;;;;;0.40;0.40;;;22.40;33.90;;;;;;5021948;28;20195;-84
2021/05/18 13:20:41;;;;;;;0.50;0.50;;;23.60;30.80;;;;;;5019847;28;20198;-84
2021/05/18 13:23:11;;;;;;;0.70;0.52;;;23.30;30.60;;;;;;5021688;28;20283;-85
2021/05/18 13:28:21;;;;;;;0.63;0.63;;;22.60;33.70;;;;;;5025331;28;20188;-85
2021/05/18 13:30:48;;;;;;;0.73;0.73;;;23.90;30.80;;;;;;5017872;28;20196;-85
2021/05/18 13:33:14;;;;;;;0.43;0.43;;;25.00;31.50;;;;;;5020809;28;20685;-85
2021/05/18 13:35:40;;;;;;;0.40;0.40;;;25.20;30.00;;;;;;5017745;28;20215;-86
2021/05/18 13:38:06;;;;;;;0.57;0.57;;;24.10;29.40;;;;;;5017422;28;20199;-85
2021/05/18 13:40:31;;;;;;;0.52;0.52;;;24.40;29.70;;;;;;5016658;28;20194;-85
2021/05/18 13:42:58;;;;;;;0.63;0.63;;;23.40;30.40;;;;;;5020444;28;20201;-86
2021/05/18 13:45:25;;;;;;;0.35;0.35;;;23.50;30.80;;;;;;5005974;28;20307;-86
2021/05/18 13:47:54;;;;;;;2.55;0.70;;;24.60;30.60;;;;;;5016387;28;20755;-86
2021/05/18 13:50:24;;;;;;;1.73;0.52;;;23.40;31.00;;;;;;5007412;28;20193;-86
2021/05/18 13:52:49;;;;;;;0.60;0.60;;;21.70;33.90;;;;;;5027556;28;20212;-87
2021/05/18 13:55:15;;;;;;;5.73;0.90;;;20.20;36.10;;;;;;5032576;28;20224;-85
2021/05/18 13:57:42;;;;;;;2.03;1.50;;;18.00;41.20;;;;;;5025678;28;20218;-85
2021/05/18 14:00:10;;;;;;;3.13;1.03;;;17.20;43.80;;;;;;5015441;28;20248;-86
2021/05/18 14:02:41;;;;;;;2.27;1.17;;;16.50;46.20;;;;;;5004909;28;20185;-83
2021/05/18 14:05:13;;;;;;;2.20;1.47;;;15.90;47.20;;;;;;5009005;28;20276;-84
2021/05/18 14:08:01;;;;;;;4.30;1.07;;;15.60;48.10;;;;;;5018931;28;20215;-84
2021/05/18 14:10:27;;;;;;;3.17;1.10;;;;;;;;;;5024442;28;20204;-85
2021/05/18 14:12:53;;;;;;;1.50;1.03;;;15.30;50.20;;;;;;5029206;28;20217;-85
2021/05/18 14:15:18;;;;;;;1.17;0.93;;;15.00;50.60;;;;;;5025421;28;20540;-86
2021/05/18 14:17:44;;;;;;;1.17;1.07;;;14.80;50.00;;;;;;5019246;28;20211;-85
2021/05/18 14:20:10;;;;;;;0.87;0.83;;;14.80;51.10;;;;;;5022864;28;20604;-84
2021/05/18 14:22:36;;;;;;;0.63;0.63;;;14.80;50.80;;;;;;5028575;28;20218;-86
2021/05/18 14:25:11;;;;;;;3.23;0.80;;;14.20;52.40;;;;;;5031568;28;20187;-85
2021/05/18 14:27:48;;;;;;;0.60;0.60;;;14.10;52.70;;;;;;5036922;28;20198;-85
2021/05/18 14:30:15;;;;;;;1.30;0.83;;;13.70;54.40;;;;;;5028006;28;20257;-86
2021/05/18 14:32:41;;;;;;;0.80;0.70;;;13.60;57.70;;;;;;5001102;28;20305;-85
2021/05/18 14:35:09;;;;;;;0.87;0.83;;;13.50;62.80;;;;;;5022676;28;20195;-85
2021/05/18 14:37:37;;;;;;;1.13;0.97;;;13.30;63.80;;;;;;5013630;28;20185;-84
2021/05/18 14:42:58;;;;;;;3.20;1.10;;;12.60;70.00;;;;;;4961490;29;20284;-85
2021/05/18 14:45:37;;;;;;;1.37;0.83;;;12.60;70.10;;;;;;4961502;28;20219;-84
2021/05/18 14:55:59;;;;;;;1.40;1.30;;;18.70;53.10;;;;;;4965642;28;20245;-83
2021/05/18 14:58:25;;;;;;;1.33;0.77;;;19.00;48.70;;;;;;4962132;29;20197;-84
2021/05/18 15:00:51;;;;;;;0.40;0.40;;;19.30;49.30;;;;;;4961291;29;20204;-84
2021/05/18 15:03:17;;;;;;;1.00;0.50;;;19.10;47.20;;;;;;4950676;28;20215;-85
2021/05/18 15:05:42;;;;;;;1.00;0.80;;;18.00;48.00;;;;;;4960065;29;20284;-86
2021/05/18 15:08:09;;;;;;;0.70;0.70;;;17.90;52.00;;;;;;4943324;28;20215;-85
2021/05/18 15:10:35;;;;;;;0.53;0.50;;;19.00;49.20;;;;;;4945051;29;20271;-85
2021/05/18 15:13:02;;;;;;;2.47;0.70;;;21.40;47.20;;;;;;4960997;28;20211;-84
2021/05/18 15:15:29;;;;;;;0.50;0.50;;;21.80;40.90;;;;;;4965345;28;20199;-85
2021/05/18 15:17:59;;;;;;;2.23;0.60;;;21.00;41.60;;;;;;4953090;28;20199;-85
2021/05/18 15:20:25;;;;;;;0.80;0.80;;;20.90;40.20;;;;;;4996384;28;20671;-84
2021/05/18 15:22:51;;;;;;;0.83;0.70;;;21.60;41.00;;;;;;5019597;28;20199;-84
2021/05/18 15:25:17;;;;;;;0.70;0.60;;;22.00;38.90;;;;;;5011757;28;20312;-87
2021/05/18 15:27:43;;;;;;;0.60;0.60;;;23.60;38.20;;;;;;5016044;28;20226;-85
2021/05/18 15:30:10;;;;;;;0.50;0.50;;;26.30;31.70;;;;;;5030351;28;20201;-84
2021/05/18 15:32:38;;;;;;;2.28;0.80;;;29.20;26.80;;;;;;5010901;28;20219;-85
2021/05/18 15:35:06;;;;;;;0.60;0.60;;;29.30;27.10;;;;;;5012386;28;20215;-85
2021/05/18 15:37:33;;;;;;;0.50;0.50;;;30.30;25.20;;;;;;5020970;28;20245;-85
2021/05/18 15:39:59;;;;;;;0.60;0.60;;;30.00;26.10;;;;;;5026904;28;20195;-86
2021/05/18 15:42:24;;;;;;;0.52;0.52;;;31.00;26.70;;;;;;5013632;28;20201;-86
2021/05/18 15:44:50;;;;;;;0.80;0.77;;;32.00;23.10;;;;;;5027951;28;20230;-85
2021/05/18 15:47:16;;;;;;;0.50;0.50;;;32.60;23.30;;;;;;5007926;28;20191;-84
2021/05/18 15:49:42;;;;;;;1.20;0.95;;;31.50;22.60;;;;;;5031488;28;20198;-84
2021/05/18 15:52:08;;;;;;;0.90;0.57;;;30.60;24.20;;;;;;5017251;28;20265;-84
2021/05/18 15:54:34;;;;;;;0.65;0.63;;;;;;;;;;5014648;28;20188;-84
2021/05/18 15:57:00;;;;;;;0.55;0.52;;;30.40;24.30;;;;;;5014058;28;20375;-84
2021/05/18 15:59:26;;;;;;;0.55;0.55;;;31.20;24.90;;;;;;5012676;28;20358;-84
2021/05/18 16:01:53;;;;;;;0.43;0.43;;;30.80;22.50;;;;;;5007198;28;20183;-85
2021/05/18 16:04:19;;;;;;;2.00;0.82;;;31.40;23.50;;;;;;5024813;28;20199;-85
2021/05/18 16:06:44;;;;;;;0.70;0.65;;;30.70;23.30;;;;;;5023038;28;20293;-84
2021/05/18 16:09:12;;;;;;;0.85;0.75;;;27.30;26.30;;;;;;5024158;28;20248;-84
2021/05/18 16:11:38;;;;;;;0.60;0.60;;;27.20;26.80;;;;;;5017609;28;20592;-84
2021/05/18 16:14:07;;;;;;;0.47;0.40;;;24.40;30.90;;;;;;5005167;28;20212;-83
2021/05/18 16:16:34;;;;;;;0.50;0.50;;;21.60;34.00;;;;;;5038481;28;20267;-84
2021/05/18 16:18:59;;;;;;;1.07;0.90;;;21.10;35.70;;;;;;5024531;28;20628;-84
2021/05/18 16:21:26;;;;;;;0.50;0.50;;;19.20;38.90;;;;;;5022899;28;20304;-84
2021/05/18 16:23:55;;;;;;;0.60;0.60;;;19.10;39.60;;;;;;5016900;28;20207;-83
2021/05/18 16:26:26;;;;;;;0.90;0.80;;;18.90;40.80;;;;;;5026047;28;20196;-83
2021/05/18 16:28:53;;;;;;;0.80;0.80;;;18.90;41.00;;;;;;5025107;28;20201;-84
2021/05/18 16:31:21;;;;;;;0.83;0.43;;;18.90;42.00;;;;;;5021304;28;20187;-83
2021/05/18 16:33:47;;;;;;;0.60;0.60;;;19.20;41.00;;;;;;5036500;28;20183;-84
2021/05/18 16:36:15;;;;;;;0.83;0.67;;;19.40;41.20;;;;;;5022081;28;20239;-84
2021/05/18 16:38:41;;;;;;;1.00;0.90;;;18.90;41.30;;;;;;5004260;28;20261;-84
2021/05/18 16:41:06;;;;;;;1.90;1.57;;;18.60;44.00;;;;;;5018177;28;20277;-84
2021/05/18 16:43:33;;;;;;;1.50;0.80;;;18.20;42.90;;;;;;5023736;28;20192;-84
2021/05/18 16:45:59;;;;;;;1.23;0.90;;;17.10;45.10;;;;;;5023573;28;20192;-84
2021/05/18 16:48:27;;;;;;;2.50;1.20;;;;;;;;;;5014848;28;20188;-84
2021/05/18 16:50:55;;;;;;;2.23;1.77;;;16.80;46.20;;;;;;5026451;28;20204;-83
2021/05/18 16:53:21;;;;;;;4.57;3.37;;;;;;;;;;5021601;28;20274;-83
2021/05/18 16:55:47;;;;;;;2.57;1.40;;;16.80;47.90;;;;;;5014124;28;20228;-84
2021/05/18 16:58:15;;;;;;;2.03;1.83;;;16.80;48.40;;;;;;5020582;28;20202;-83
2021/05/18 17:00:41;;;;;;;3.20;2.90;;;16.80;48.50;;;;;;5016733;28;20200;-85
2021/05/18 17:03:07;;;;;;;1.30;1.20;;;17.10;47.60;;;;;;5022398;28;20257;-84
2021/05/18 17:05:32;;;;;;;3.13;1.67;;;17.00;48.70;;;;;;5017353;28;20187;-85
2021/05/18 17:08:03;;;;;;;2.77;2.50;;;16.90;47.90;;;;;;5013793;28;20205;-86
2021/05/18 17:10:32;;;;;;;2.83;2.37;;;16.90;49.20;;;;;;5030623;28;20190;-86
2021/05/18 17:12:58;;;;;;;1.33;1.00;;;17.00;49.40;;;;;;5021381;28;20224;-86
2021/05/18 17:15:24;;;;;;;2.40;1.00;;;16.80;48.80;;;;;;5019923;28;20216;-85
2021/05/18 17:17:53;;;;;;;1.13;1.03;;;16.90;49.80;;;;;;5018404;28;20650;-85
2021/05/18 17:20:20;;;;;;;1.60;1.50;;;16.70;49.80;;;;;;5005488;28;20199;-83
2021/05/18 17:22:47;;;;;;;2.40;2.20;;;;;;;;;;5023822;28;20192;-84
2021/05/18 17:25:13;;;;;;;1.03;0.90;;;17.70;47.60;;;;;;5020994;28;20223;-86
2021/05/18 17:27:39;;;;;;;1.33;1.13;;;19.70;42.10;;;;;;5019611;28;20213;-82
2021/05/18 17:30:08;;;;;;;14.80;12.07;;;20.70;39.30;;;;;;5021608;28;20376;-84
2021/05/18 17:32:34;;;;;;;4.77;3.57;;;20.40;40.10;;;;;;5007837;28;20294;-83
2021/05/18 17:34:59;;;;;;;1.87;1.40;;;20.20;40.20;;;;;;5019550;28;20305;-84
2021/05/18 17:37:29;;;;;;;2.70;2.33;;;19.80;41.00;;;;;;5016021;28;20185;-84
2021/05/18 17:39:55;;;;;;;4.13;3.80;;;18.80;42.00;;;;;;5006431;28;20199;-84
2021/05/18 17:42:24;;;;;;;1.60;1.30;;;18.00;44.80;;;;;;5020739;28;20201;-84
2021/05/18 17:44:51;;;;;;;2.40;2.20;;;17.60;46.30;;;;;;5021643;28;20672;-84
2021/05/18 17:47:17;;;;;;;1.13;1.03;;;;;;;;;;5025379;28;20198;-84
2021/05/18 17:49:43;;;;;;;0.97;0.80;;;18.20;45.60;;;;;;5023631;28;20175;-84
2021/05/18 17:52:09;;;;;;;3.30;1.13;;;19.10;44.50;;;;;;5018006;28;20222;-84
2021/05/18 17:54:38;;;;;;;1.47;1.27;;;19.10;43.30;;;;;;5000940;28;20193;-85
2021/05/18 17:57:06;;;;;;;1.10;1.00;;;18.30;44.30;;;;;;5022246;28;20211;-86
2021/05/18 17:59:32;;;;;;;1.00;0.87;;;16.60;44.90;;;;;;5027134;28;20211;-86
2021/05/18 18:02:00;;;;;;;1.33;1.00;;;16.40;45.60;;;;;;5017239;28;20194;-86
2021/05/18 18:04:29;;;;;;;1.47;1.20;;;16.00;47.80;;;;;;5022864;28;20195;-86